Time;durP1;ratioP1;P1;durP2;ratioP2;P2;SDS_P1;SDS_P2;PMS_P1;PMS_P2;Temp;Humidity;BMP_temperature;BMP_pressure;BME280_temperature;BME280_humidity;BME280_pressure;Samples;Min_cycle;Max_cycle;Signal;HPM_P1;HPM_P2
2023/04/13 00:00:31;;;;;;;;;;;;;;;17.95;51.93;99488.25;2071558;28;20008;-55
2023/04/13 00:01:35;;;;;;;;;;;;;;;17.95;51.79;99482.78;2070881;28;21047;-62
2023/04/13 00:02:38;;;;;;;;;;;;;;;17.95;51.84;99496.44;2061024;28;20405;-55
2023/04/13 00:03:41;;;;;;;;;;;;;;;17.95;52.16;99487.50;2062826;28;19976;-55
2023/04/13 00:04:43;;;;;;;;;;;;;;;17.95;52.04;99488.25;2072386;28;19937;-53
2023/04/13 00:05:47;;;;;;;;;;;;;;;17.95;52.02;99492.97;2070381;28;19974;-54
2023/04/13 00:06:49;;;;;;;;;;;;;;;17.95;51.92;99491.00;2073720;28;19937;-56
2023/04/13 00:07:52;;;;;;;;;;;;;;;17.95;51.92;99487.50;2075389;28;19929;-56
2023/04/13 00:08:54;;;;;;;;;;;;;;;17.93;51.80;99491.41;2065134;28;19929;-55
2023/04/13 00:09:57;;;;;;;;;;;;;;;17.93;51.93;99488.69;2063274;28;20294;-53
2023/04/13 00:11:00;;;;;;;;;;;;;;;17.93;51.73;99485.19;2071896;28;19926;-55
2023/04/13 00:12:03;;;;;;;;;;;;;;;17.93;51.83;99477.00;2066942;28;19937;-53
2023/04/13 00:13:06;;;;;;;;;;;;;;;17.93;51.74;99490.66;2071189;28;19930;-53
2023/04/13 00:14:09;;;;;;;;;;;;;;;17.93;51.76;99482.47;2072260;28;19936;-55
2023/04/13 00:15:11;;;;;;;;;;;;;;;17.92;52.00;99473.50;2072115;28;20629;-54
2023/04/13 00:16:15;;;;;;;;;;;;;;;17.92;51.66;99485.63;2070741;28;19930;-55
2023/04/13 00:17:17;;;;;;;;;;;;;;;17.92;51.82;99478.19;2077904;28;19929;-54
2023/04/13 00:18:20;;;;;;;;;;;;;;;17.93;51.59;99485.19;2074172;28;19926;-55
2023/04/13 00:19:23;;;;;;;;;;;;;;;17.93;51.69;99479.75;2071690;28;20712;-54
2023/04/13 00:20:25;;;;;;;;;;;;;;;17.92;51.51;99471.97;2071749;28;19960;-55
2023/04/13 00:21:27;;;;;;;;;;;;;;;17.92;51.84;99478.19;2069246;28;19936;-54
2023/04/13 00:22:30;;;;;;;;;;;;;;;17.92;51.84;99475.44;2072089;28;19926;-54
2023/04/13 00:23:35;;;;;;;;;;;;;;;17.92;51.88;99472.72;2074045;28;19982;-55
2023/04/13 00:24:36;;;;;;;;;;;;;;;17.90;51.56;99475.88;2072045;28;20562;-55
2023/04/13 00:25:39;;;;;;;;;;;;;;;17.91;51.62;99471.19;2064463;28;20381;-54
2023/04/13 00:26:43;;;;;;;;;;;;;;;17.91;51.88;99476.66;2057874;28;20428;-54
2023/04/13 00:27:46;;;;;;;;;;;;;;;17.91;51.74;99468.47;2074040;28;20067;-55
2023/04/13 00:28:47;;;;;;;;;;;;;;;17.91;51.76;99468.47;2073048;28;19930;-54
2023/04/13 00:29:50;;;;;;;;;;;;;;;17.90;51.77;99475.88;2070069;28;19937;-55
2023/04/13 00:30:52;;;;;;;;;;;;;;;17.90;51.62;99470.41;2072099;28;19930;-54
2023/04/13 00:31:55;;;;;;;;;;;;;;;17.90;51.57;99469.66;2073380;28;20336;-55
2023/04/13 00:32:57;;;;;;;;;;;;;;;17.90;51.56;99464.19;2069497;28;19930;-55
2023/04/13 00:34:00;;;;;;;;;;;;;;;17.90;51.47;99459.50;2071601;28;20348;-54
2023/04/13 00:35:02;;;;;;;;;;;;;;;17.90;51.39;99475.88;2069897;28;19930;-55
2023/04/13 00:36:05;;;;;;;;;;;;;;;17.90;51.53;99464.19;2071514;28;19930;-56
2023/04/13 00:37:06;;;;;;;;;;;;;;;17.90;51.64;99464.19;2072353;28;20308;-51
2023/04/13 00:38:10;;;;;;;;;;;;;;;17.89;51.66;99474.34;2074592;28;20408;-56
2023/04/13 00:39:12;;;;;;;;;;;;;;;17.89;51.68;99468.88;2075511;28;19931;-56
2023/04/13 00:40:15;;;;;;;;;;;;;;;17.89;51.57;99462.66;2072961;28;19934;-56
2023/04/13 00:41:18;;;;;;;;;;;;;;;17.89;51.37;99466.16;2070046;28;19936;-54
2023/04/13 00:42:23;;;;;;;;;;;;;;;17.89;51.46;99476.31;2071955;28;20625;-56
2023/04/13 00:43:26;;;;;;;;;;;;;;;17.90;51.37;99477.84;2071348;28;19937;-57
2023/04/13 00:44:29;;;;;;;;;;;;;;;17.90;51.32;99475.13;2069662;28;19929;-59
2023/04/13 00:45:32;;;;;;;;;;;;;;;17.89;51.55;99473.56;2072802;28;19965;-58
2023/04/13 00:46:35;;;;;;;;;;;;;;;17.89;51.26;99479.81;2073616;28;19940;-56
2023/04/13 00:47:37;;;;;;;;;;;;;;;17.89;51.50;99468.88;2072233;28;19941;-54
2023/04/13 00:48:40;;;;;;;;;;;;;;;17.90;51.39;99472.41;2071908;28;20468;-55
2023/04/13 00:49:41;;;;;;;;;;;;;;;17.88;51.04;99472.81;2067802;28;19929;-54
2023/04/13 00:50:45;;;;;;;;;;;;;;;17.90;51.24;99472.41;2068648;28;20020;-54
2023/04/13 00:51:46;;;;;;;;;;;;;;;17.90;51.25;99475.88;2079997;28;19929;-54
2023/04/13 00:52:49;;;;;;;;;;;;;;;17.89;50.98;99468.09;2077282;28;19925;-53
2023/04/13 00:53:51;;;;;;;;;;;;;;;17.90;50.93;99466.94;2075311;28;19983;-54
2023/04/13 00:54:55;;;;;;;;;;;;;;;17.89;51.00;99479.81;2073083;28;20389;-54
2023/04/13 00:55:57;;;;;;;;;;;;;;;17.88;50.92;99472.81;2065174;28;19936;-54
2023/04/13 00:57:00;;;;;;;;;;;;;;;17.89;50.75;99468.09;2065893;28;20391;-54
2023/04/13 00:58:03;;;;;;;;;;;;;;;17.88;50.56;99475.56;2064039;28;19930;-51
2023/04/13 00:59:06;;;;;;;;;;;;;;;17.88;50.75;99467.34;2063908;28;19937;-51
2023/04/13 01:00:08;;;;;;;;;;;;;;;17.88;50.81;99472.81;2072414;28;20304;-56
2023/04/13 01:01:11;;;;;;;;;;;;;;;17.88;50.82;99467.34;2065396;28;19937;-54
2023/04/13 01:02:14;;;;;;;;;;;;;;;17.88;50.53;99461.91;2068467;28;19933;-54
2023/04/13 01:03:17;;;;;;;;;;;;;;;17.88;50.50;99456.44;2073717;28;20015;-54
2023/04/13 01:04:19;;;;;;;;;;;;;;;17.88;50.22;99458.38;2070246;28;19940;-55
2023/04/13 01:05:24;;;;;;;;;;;;;;;17.88;50.15;99450.19;2074679;28;21651;-55
2023/04/13 01:06:30;;;;;;;;;;;;;;;17.88;50.24;99452.94;2073144;28;20389;-54
2023/04/13 01:07:37;;;;;;;;;;;;;;;17.87;50.21;99449.41;2066557;28;19936;-55
2023/04/13 01:08:44;;;;;;;;;;;;;;;17.88;50.33;99444.75;2070958;28;19925;-56
2023/04/13 01:09:51;;;;;;;;;;;;;;;17.87;50.15;99443.19;2069424;28;20472;-55
2023/04/13 01:10:55;;;;;;;;;;;;;;;17.87;50.30;99437.72;2072145;28;20433;-56
2023/04/13 01:12:03;;;;;;;;;;;;;;;17.87;50.22;99426.78;2072493;28;19929;-55
2023/04/13 01:13:09;;;;;;;;;;;;;;;17.87;50.41;99448.63;2063931;28;19937;-55
2023/04/13 01:14:22;;;;;;;;;;;;;;;17.87;50.53;99434.97;2056773;28;19965;-54
2023/04/13 01:15:26;;;;;;;;;;;;;;;17.86;50.03;99436.19;2062479;28;19997;-55
2023/04/13 01:16:30;;;;;;;;;;;;;;;17.86;50.40;99431.50;2064362;28;20117;-56
2023/04/13 01:17:35;;;;;;;;;;;;;;;17.86;50.11;99431.50;2066268;28;19977;-55
2023/04/13 01:18:40;;;;;;;;;;;;;;;17.86;50.40;99428.00;2065641;28;19929;-55
2023/04/13 01:19:50;;;;;;;;;;;;;;;17.85;50.40;99429.94;2065393;28;19930;-55
2023/04/13 01:20:54;;;;;;;;;;;;;;;17.86;50.44;99430.72;2056781;28;19999;-55
2023/04/13 01:21:58;;;;;;;;;;;;;;;17.86;50.05;99436.19;2055915;28;19938;-55
2023/04/13 01:23:03;;;;;;;;;;;;;;;17.85;50.24;99429.94;2060560;28;19937;-54
2023/04/13 01:24:08;;;;;;;;;;;;;;;17.86;50.11;99425.28;2071805;28;19933;-55
2023/04/13 01:25:21;;;;;;;;;;;;;;;17.85;50.24;99424.50;2072960;28;20446;-55
2023/04/13 01:26:26;;;;;;;;;;;;;;;17.84;50.13;99417.50;2072713;28;19929;-56
2023/04/13 01:27:42;;;;;;;;;;;;;;;17.85;50.14;99412.81;2070406;28;20016;-56
2023/04/13 01:28:46;;;;;;;;;;;;;;;17.85;50.11;99415.53;2074874;28;20443;-55
2023/04/13 01:29:50;;;;;;;;;;;;;;;17.85;49.91;99421.00;2069814;28;19925;-56
2023/04/13 01:30:52;;;;;;;;;;;;;;;17.84;50.30;99419.44;2075145;28;19956;-55
2023/04/13 01:31:57;;;;;;;;;;;;;;;17.83;50.00;99407.00;2073007;28;19976;-56
2023/04/13 01:33:01;;;;;;;;;;;;;;;17.84;50.27;99405.81;2076139;28;19976;-55
2023/04/13 01:34:05;;;;;;;;;;;;;;;17.83;49.83;99405.06;2063941;28;19933;-55
2023/04/13 01:35:09;;;;;;;;;;;;;;;17.83;50.12;99409.72;2055904;28;20061;-56
2023/04/13 01:36:14;;;;;;;;;;;;;;;17.84;49.87;99411.25;2064430;28;19941;-56
2023/04/13 01:37:16;;;;;;;;;;;;;;;17.83;50.14;99404.28;2073168;28;19930;-54
2023/04/13 01:38:23;;;;;;;;;;;;;;;17.83;50.10;99401.53;2063554;28;19936;-54
2023/04/13 01:39:30;;;;;;;;;;;;;;;17.83;50.20;99398.81;2069190;28;20019;-53
2023/04/13 01:40:44;;;;;;;;;;;;;;;17.82;50.07;99408.22;2055730;28;19973;-53
2023/04/13 01:41:48;;;;;;;;;;;;;;;17.82;50.03;99403.50;2055902;28;19930;-55
2023/04/13 01:42:52;;;;;;;;;;;;;;;17.82;50.18;99403.50;2064033;28;20008;-55
2023/04/13 01:43:54;;;;;;;;;;;;;;;17.82;50.20;99394.56;2072395;28;19929;-56
2023/04/13 01:45:04;;;;;;;;;;;;;;;17.81;49.88;99396.50;2064645;28;20891;-55
2023/04/13 01:46:08;;;;;;;;;;;;;;;17.81;49.97;99399.22;2064455;28;20045;-54
2023/04/13 01:47:24;;;;;;;;;;;;;;;17.81;49.90;99393.78;2057123;28;19930;-55
2023/04/13 01:48:43;;;;;;;;;;;;;;;17.81;49.98;99395.72;2058081;28;19926;-55
2023/04/13 01:49:59;;;;;;;;;;;;;;;17.81;49.75;99390.28;2056421;28;19965;-55
2023/04/13 01:51:16;;;;;;;;;;;;;;;17.81;50.01;99395.72;2065277;28;19926;-55
2023/04/13 01:52:22;;;;;;;;;;;;;;;17.81;49.99;99395.72;2063718;28;19937;-56
2023/04/13 01:53:30;;;;;;;;;;;;;;;17.80;50.08;99405.91;2063842;28;20008;-56
2023/04/13 01:54:32;;;;;;;;;;;;;;;17.80;50.17;99397.72;2062666;28;20665;-55
2023/04/13 01:55:37;;;;;;;;;;;;;;;17.79;50.13;99393.41;2063193;28;20048;-55
2023/04/13 01:56:39;;;;;;;;;;;;;;;17.79;49.79;99392.69;2072140;28;19925;-54
2023/04/13 01:57:46;;;;;;;;;;;;;;;17.80;50.12;99400.44;2063410;28;19975;-56
2023/04/13 01:58:52;;;;;;;;;;;;;;;17.80;49.84;99396.94;2068972;28;19929;-60
2023/04/13 01:59:53;;;;;;;;;;;;;;;17.80;49.83;99391.47;2068206;28;20377;-55
2023/04/13 02:00:57;;;;;;;;;;;;;;;17.79;49.73;99400.88;2062146;28;19980;-55
2023/04/13 02:02:00;;;;;;;;;;;;;;;17.79;49.91;99392.69;2063545;28;19984;-55
2023/04/13 02:03:04;;;;;;;;;;;;;;;17.80;49.87;99394.19;2070960;28;20364;-55
2023/04/13 02:04:07;;;;;;;;;;;;;;;17.79;50.15;99389.94;2074871;28;20484;-55
2023/04/13 02:05:10;;;;;;;;;;;;;;;17.78;49.94;99391.91;2073009;28;20479;-56
2023/04/13 02:06:12;;;;;;;;;;;;;;;17.79;50.15;99387.22;2071922;28;19933;-56
2023/04/13 02:07:16;;;;;;;;;;;;;;;17.78;49.79;99396.56;2071426;28;19940;-54
2023/04/13 02:08:22;;;;;;;;;;;;;;;17.79;49.79;99392.69;2064545;28;19969;-54
2023/04/13 02:09:24;;;;;;;;;;;;;;;17.78;49.93;99385.66;2068273;28;19965;-55
2023/04/13 02:10:28;;;;;;;;;;;;;;;17.77;50.15;99393.06;2073784;28;19974;-54
2023/04/13 02:11:31;;;;;;;;;;;;;;;17.78;50.08;99391.13;2069000;28;19929;-54
2023/04/13 02:12:36;;;;;;;;;;;;;;;17.78;49.82;99391.91;2075566;28;19932;-55
2023/04/13 02:13:39;;;;;;;;;;;;;;;17.78;49.90;99385.66;2070850;28;19956;-55
2023/04/13 02:14:45;;;;;;;;;;;;;;;17.77;50.03;99390.34;2055650;28;20099;-53
2023/04/13 02:15:46;;;;;;;;;;;;;;;17.77;50.01;99384.13;2062898;28;19934;-55
2023/04/13 02:16:49;;;;;;;;;;;;;;;17.77;50.05;99386.88;2068676;28;19975;-56
2023/04/13 02:17:51;;;;;;;;;;;;;;;17.77;50.03;99382.16;2063717;28;20469;-55
2023/04/13 02:18:55;;;;;;;;;;;;;;;17.77;50.01;99389.59;2063396;28;19930;-54
2023/04/13 02:19:57;;;;;;;;;;;;;;;17.77;50.00;99390.34;2071453;28;19937;-54
2023/04/13 02:21:02;;;;;;;;;;;;;;;17.77;49.99;99386.88;2062922;28;19973;-54
2023/04/13 02:22:03;;;;;;;;;;;;;;;17.77;49.87;99392.31;2063694;28;19930;-55
2023/04/13 02:23:07;;;;;;;;;;;;;;;17.76;49.81;99383.34;2072443;28;19929;-56
2023/04/13 02:24:10;;;;;;;;;;;;;;;17.76;49.86;99386.09;2077743;28;20373;-55
2023/04/13 02:25:14;;;;;;;;;;;;;;;17.76;50.06;99380.63;2071521;28;19964;-59
2023/04/13 02:26:17;;;;;;;;;;;;;;;17.76;49.78;99388.03;2071088;28;19934;-55
2023/04/13 02:27:21;;;;;;;;;;;;;;;17.77;50.02;99389.59;2065526;28;19930;-55
2023/04/13 02:28:25;;;;;;;;;;;;;;;17.76;49.98;99388.03;2069953;28;19937;-55
2023/04/13 02:29:28;;;;;;;;;;;;;;;17.76;49.54;99385.31;2065627;28;20381;-55
2023/04/13 02:30:31;;;;;;;;;;;;;;;17.76;50.08;99385.31;2063350;28;19984;-55
2023/04/13 02:31:34;;;;;;;;;;;;;;;17.76;49.95;99385.31;2071057;28;19952;-54
2023/04/13 02:32:38;;;;;;;;;;;;;;;17.76;49.82;99382.56;2068399;28;19930;-55
2023/04/13 02:33:42;;;;;;;;;;;;;;;17.76;49.77;99388.81;2065973;28;20035;-54
2023/04/13 02:34:44;;;;;;;;;;;;;;;17.76;49.64;99386.09;2068684;28;19961;-55
2023/04/13 02:35:47;;;;;;;;;;;;;;;17.75;49.88;99383.78;2072411;28;19930;-54
2023/04/13 02:36:50;;;;;;;;;;;;;;;17.76;49.87;99374.38;2071251;28;19929;-56
2023/04/13 02:37:52;;;;;;;;;;;;;;;17.75;49.94;99375.59;2075720;28;20424;-56
2023/04/13 02:38:54;;;;;;;;;;;;;;;17.75;49.63;99395.47;2070890;28;19933;-55
2023/04/13 02:40:04;;;;;;;;;;;;;;;17.74;49.63;99384.97;2072632;28;19929;-53
2023/04/13 02:41:06;;;;;;;;;;;;;;;17.75;49.65;99378.31;2066775;28;19952;-54
2023/04/13 02:42:10;;;;;;;;;;;;;;;17.75;49.71;99387.28;2066229;28;20484;-54
2023/04/13 02:43:12;;;;;;;;;;;;;;;17.74;49.67;99382.25;2071230;28;19929;-54
2023/04/13 02:44:16;;;;;;;;;;;;;;;17.74;49.60;99387.72;2071727;28;20730;-55
2023/04/13 02:45:27;;;;;;;;;;;;;;;17.75;49.63;99391.97;2063996;28;20103;-54
2023/04/13 02:46:31;;;;;;;;;;;;;;;17.74;49.73;99390.44;2076286;28;19925;-55
2023/04/13 02:47:47;;;;;;;;;;;;;;;17.74;49.79;99390.44;2071486;28;20487;-53
2023/04/13 02:48:50;;;;;;;;;;;;;;;17.73;49.60;99389.66;2074344;28;19925;-55
2023/04/13 02:49:52;;;;;;;;;;;;;;;17.73;49.61;99386.16;2069450;28;20404;-55
2023/04/13 02:51:01;;;;;;;;;;;;;;;17.74;49.66;99387.72;2064130;28;19937;-54
2023/04/13 02:52:07;;;;;;;;;;;;;;;17.73;49.77;99381.47;2056298;28;20389;-54
2023/04/13 02:53:17;;;;;;;;;;;;;;;17.73;49.61;99375.22;2067404;28;19938;-55
2023/04/13 02:54:23;;;;;;;;;;;;;;;17.74;49.83;99379.53;2070875;28;19929;-55
2023/04/13 02:55:26;;;;;;;;;;;;;;;17.73;49.81;99380.69;2071844;28;19972;-55
2023/04/13 02:56:36;;;;;;;;;;;;;;;17.73;49.74;99383.44;2066736;28;19941;-55
2023/04/13 02:57:41;;;;;;;;;;;;;;;17.73;49.46;99380.69;2063363;28;20583;-54
2023/04/13 02:58:43;;;;;;;;;;;;;;;17.74;49.64;99395.91;2063420;28;19934;-55
2023/04/13 02:59:52;;;;;;;;;;;;;;;17.72;49.45;99384.63;2063910;28;19933;-56
2023/04/13 03:00:56;;;;;;;;;;;;;;;17.72;49.49;99388.13;2067617;28;19936;-54
2023/04/13 03:02:00;;;;;;;;;;;;;;;17.72;49.40;99390.09;2049966;28;20409;-55
2023/04/13 03:03:05;;;;;;;;;;;;;;;17.72;49.48;99390.88;2063774;28;19930;-56
2023/04/13 03:04:13;;;;;;;;;;;;;;;17.72;49.61;99398.28;2068768;28;21553;-56
2023/04/13 03:05:15;;;;;;;;;;;;;;;17.73;49.50;99394.34;2055510;28;19945;-54
2023/04/13 03:06:18;;;;;;;;;;;;;;;17.72;49.39;99395.53;2046885;28;19934;-55
2023/04/13 03:07:24;;;;;;;;;;;;;;;17.71;49.59;99399.47;2051134;28;19930;-55
2023/04/13 03:08:28;;;;;;;;;;;;;;;17.70;49.38;99393.25;2064649;28;19952;-55
2023/04/13 03:09:43;;;;;;;;;;;;;;;17.71;49.64;99399.47;2063111;28;19929;-56
2023/04/13 03:10:46;;;;;;;;;;;;;;;17.71;49.48;99404.94;2060017;28;19930;-55
2023/04/13 03:11:47;;;;;;;;;;;;;;;17.70;49.50;99400.66;2057098;28;20064;-55
2023/04/13 03:12:55;;;;;;;;;;;;;;;17.71;49.56;99410.41;2056996;28;19953;-54
2023/04/13 03:13:57;;;;;;;;;;;;;;;17.71;49.32;99407.66;2066174;28;20365;-55
2023/04/13 03:15:01;;;;;;;;;;;;;;;17.70;49.33;99412.34;2073311;28;19995;-55
2023/04/13 03:16:04;;;;;;;;;;;;;;;17.70;49.11;99412.34;2063634;28;19957;-54
2023/04/13 03:17:10;;;;;;;;;;;;;;;17.69;49.25;99410.81;2067165;28;19929;-54
2023/04/13 03:18:15;;;;;;;;;;;;;;;17.69;49.20;99410.81;2071018;28;19932;-55
2023/04/13 03:19:17;;;;;;;;;;;;;;;17.69;49.41;99412.78;2071620;28;19988;-54
2023/04/13 03:20:22;;;;;;;;;;;;;;;17.68;49.25;99406.53;2072568;28;20341;-57
2023/04/13 03:21:33;;;;;;;;;;;;;;;17.68;49.06;99405.75;2071423;28;19952;-57
2023/04/13 03:22:46;;;;;;;;;;;;;;;17.68;49.43;99411.22;2063040;28;19930;-57
2023/04/13 03:23:49;;;;;;;;;;;;;;;17.67;49.23;99412.41;2063587;28;20021;-58
2023/04/13 03:24:51;;;;;;;;;;;;;;;17.67;49.22;99396.03;2063576;28;20464;-58
2023/04/13 03:26:01;;;;;;;;;;;;;;;17.67;49.35;99406.97;2056898;28;19964;-57
2023/04/13 03:27:03;;;;;;;;;;;;;;;17.67;49.32;99404.22;2063165;28;19930;-58
2023/04/13 03:28:11;;;;;;;;;;;;;;;17.66;49.62;99403.44;2071183;28;20001;-56
2023/04/13 03:29:16;;;;;;;;;;;;;;;17.67;49.66;99398.78;2068790;28;19926;-57
2023/04/13 03:30:20;;;;;;;;;;;;;;;17.66;49.51;99406.19;2063264;28;19930;-57
2023/04/13 03:31:29;;;;;;;;;;;;;;;17.66;49.59;99400.72;2055130;28;20025;-57
2023/04/13 03:32:33;;;;;;;;;;;;;;;17.66;49.72;99399.97;2057223;28;19929;-55
2023/04/13 03:33:36;;;;;;;;;;;;;;;17.66;49.42;99394.50;2064931;28;20292;-56
2023/04/13 03:34:42;;;;;;;;;;;;;;;17.66;49.43;99405.44;2060441;28;20085;-56
2023/04/13 03:35:46;;;;;;;;;;;;;;;17.66;49.74;99399.97;2055540;28;19933;-58
2023/04/13 03:37:01;;;;;;;;;;;;;;;17.64;49.42;99407.81;2056972;28;20036;-57
2023/04/13 03:38:03;;;;;;;;;;;;;;;17.64;49.38;99413.25;2068554;28;20356;-58
2023/04/13 03:39:12;;;;;;;;;;;;;;;17.65;49.65;99421.03;2065331;28;19932;-58
2023/04/13 03:40:14;;;;;;;;;;;;;;;17.64;49.42;99424.19;2064940;28;19980;-57
2023/04/13 03:41:24;;;;;;;;;;;;;;;17.64;49.25;99424.97;2063022;28;19952;-58
2023/04/13 03:42:26;;;;;;;;;;;;;;;17.63;49.41;99430.84;2064887;28;19937;-57
2023/04/13 03:43:32;;;;;;;;;;;;;;;17.63;49.51;99422.66;2062776;28;20017;-58
2023/04/13 03:44:44;;;;;;;;;;;;;;;17.62;49.08;99421.88;2069661;28;19972;-62
2023/04/13 03:45:46;;;;;;;;;;;;;;;17.62;48.97;99423.81;2072376;28;20462;-57
2023/04/13 03:46:50;;;;;;;;;;;;;;;17.62;49.34;99426.56;2074611;28;20035;-58
2023/04/13 03:48:04;;;;;;;;;;;;;;;17.62;49.12;99424.59;2063324;28;20433;-57
2023/04/13 03:49:08;;;;;;;;;;;;;;;17.61;49.23;99425.03;2055664;28;19926;-57
2023/04/13 03:50:11;;;;;;;;;;;;;;;17.61;49.19;99425.03;2056262;28;19988;-58
2023/04/13 03:51:15;;;;;;;;;;;;;;;17.60;49.54;99423.50;2075068;28;19929;-56
2023/04/13 03:52:24;;;;;;;;;;;;;;;17.60;49.48;99428.97;2075203;28;19936;-58
2023/04/13 03:53:32;;;;;;;;;;;;;;;17.59;49.48;99422.72;2066903;28;20033;-58
2023/04/13 03:54:34;;;;;;;;;;;;;;;17.59;49.40;99425.44;2060599;28;20004;-57
2023/04/13 03:55:37;;;;;;;;;;;;;;;17.59;49.20;99427.41;2063294;28;20405;-58
2023/04/13 03:56:41;;;;;;;;;;;;;;;17.59;49.49;99427.41;2071676;28;19963;-57
2023/04/13 03:57:44;;;;;;;;;;;;;;;17.58;49.53;99431.34;2056649;28;19965;-55
2023/04/13 03:58:50;;;;;;;;;;;;;;;17.58;49.51;99423.16;2053472;28;19930;-58
2023/04/13 03:59:57;;;;;;;;;;;;;;;17.59;49.41;99427.41;2064263;28;19929;-58
2023/04/13 04:01:14;;;;;;;;;;;;;;;17.57;49.54;99430.56;2067190;28;19937;-59
2023/04/13 04:02:21;;;;;;;;;;;;;;;17.57;49.25;99424.31;2071427;28;19980;-58
2023/04/13 04:03:25;;;;;;;;;;;;;;;17.57;49.57;99429.78;2064567;28;20386;-57
2023/04/13 04:04:37;;;;;;;;;;;;;;;17.56;49.52;99428.25;2057741;28;19957;-56
2023/04/13 04:05:41;;;;;;;;;;;;;;;17.56;49.48;99433.72;2068532;28;20431;-55
2023/04/13 04:06:44;;;;;;;;;;;;;;;17.56;49.44;99428.25;2072305;28;19933;-55
2023/04/13 04:07:48;;;;;;;;;;;;;;;17.56;49.45;99428.25;2064116;28;19953;-58
2023/04/13 04:08:53;;;;;;;;;;;;;;;17.56;49.18;99433.72;2063752;28;22314;-58
2023/04/13 04:10:06;;;;;;;;;;;;;;;17.55;49.30;99426.72;2062677;28;19933;-57
2023/04/13 04:11:09;;;;;;;;;;;;;;;17.55;49.05;99429.44;2062873;28;20017;-57
2023/04/13 04:12:11;;;;;;;;;;;;;;;17.54;49.42;99430.63;2067874;28;19925;-58
2023/04/13 04:13:17;;;;;;;;;;;;;;;17.55;49.14;99432.19;2056918;28;20016;-57
2023/04/13 04:14:23;;;;;;;;;;;;;;;17.54;49.44;99438.81;2061321;28;19936;-57
2023/04/13 04:15:44;;;;;;;;;;;;;;;17.53;49.21;99442.75;2060843;28;19930;-54
2023/04/13 04:16:45;;;;;;;;;;;;;;;17.53;49.22;99431.81;2060947;28;20314;-57
2023/04/13 04:17:50;;;;;;;;;;;;;;;17.54;49.45;99438.81;2056587;28;19934;-58
2023/04/13 04:18:53;;;;;;;;;;;;;;;17.53;49.28;99434.53;2064350;28;19925;-57
2023/04/13 04:19:56;;;;;;;;;;;;;;;17.53;49.51;99434.53;2073763;28;19929;-56
2023/04/13 04:21:01;;;;;;;;;;;;;;;17.52;49.30;99431.03;2062890;28;19983;-57
2023/04/13 04:22:05;;;;;;;;;;;;;;;17.52;49.27;99436.50;2056681;28;20644;-57
2023/04/13 04:23:14;;;;;;;;;;;;;;;17.52;49.30;99430.28;2065489;28;20060;-60
2023/04/13 04:24:29;;;;;;;;;;;;;;;17.52;49.59;99433.03;2072140;28;19929;-58
2023/04/13 04:25:33;;;;;;;;;;;;;;;17.52;49.42;99436.50;2065853;28;20019;-58
2023/04/13 04:26:37;;;;;;;;;;;;;;;17.52;49.28;99433.03;2056538;28;20835;-57
2023/04/13 04:27:39;;;;;;;;;;;;;;;17.52;49.58;99441.22;2064488;28;20416;-58
2023/04/13 04:28:43;;;;;;;;;;;;;;;17.52;49.54;99446.66;2072375;28;19990;-58
2023/04/13 04:29:50;;;;;;;;;;;;;;;17.51;49.22;99448.63;2064751;28;19936;-55
2023/04/13 04:31:04;;;;;;;;;;;;;;;17.50;49.04;99444.34;2062610;28;20505;-58
2023/04/13 04:32:09;;;;;;;;;;;;;;;17.51;49.18;99436.91;2073219;28;20328;-57
2023/04/13 04:33:14;;;;;;;;;;;;;;;17.51;49.35;99445.09;2075404;28;19974;-58
2023/04/13 04:34:17;;;;;;;;;;;;;;;17.50;49.38;99446.31;2072887;28;19934;-57
2023/04/13 04:35:20;;;;;;;;;;;;;;;17.51;49.51;99453.28;2078310;28;19961;-58
2023/04/13 04:36:26;;;;;;;;;;;;;;;17.51;49.48;99456.03;2072679;28;19925;-56
2023/04/13 04:37:36;;;;;;;;;;;;;;;17.50;49.25;99452.53;2072254;28;19952;-57
2023/04/13 04:38:42;;;;;;;;;;;;;;;17.51;49.46;99453.28;2064373;28;19926;-57
2023/04/13 04:39:44;;;;;;;;;;;;;;;17.49;49.32;99459.16;2061063;28;20420;-58
2023/04/13 04:40:49;;;;;;;;;;;;;;;17.50;49.42;99463.47;2061805;28;19933;-58
2023/04/13 04:41:53;;;;;;;;;;;;;;;17.49;49.25;99461.91;2056216;28;20429;-58
2023/04/13 04:42:57;;;;;;;;;;;;;;;17.49;49.49;99461.91;2063327;28;19926;-57
2023/04/13 04:44:11;;;;;;;;;;;;;;;17.49;49.54;99455.69;2057766;28;20508;-58
2023/04/13 04:45:16;;;;;;;;;;;;;;;17.49;49.58;99455.69;2055623;28;19953;-57
2023/04/13 04:46:24;;;;;;;;;;;;;;;17.48;49.18;99454.13;2051405;28;20033;-56
2023/04/13 04:47:29;;;;;;;;;;;;;;;17.49;49.14;99455.69;2048713;28;19930;-58
2023/04/13 04:48:46;;;;;;;;;;;;;;;17.49;49.38;99458.41;2050438;28;20009;-57
2023/04/13 04:49:50;;;;;;;;;;;;;;;17.48;49.31;99460.38;2050635;28;20326;-59
2023/04/13 04:50:54;;;;;;;;;;;;;;;17.49;49.26;99455.69;2078884;28;19925;-55
2023/04/13 04:51:58;;;;;;;;;;;;;;;17.48;49.44;99460.38;2073527;28;20006;-57
2023/04/13 04:53:01;;;;;;;;;;;;;;;17.47;49.17;99464.28;2072115;28;19929;-56
2023/04/13 04:54:04;;;;;;;;;;;;;;;17.48;49.42;99465.84;2072506;28;19987;-57
2023/04/13 04:55:07;;;;;;;;;;;;;;;17.49;49.36;99470.09;2072164;28;20292;-55
2023/04/13 04:56:12;;;;;;;;;;;;;;;17.48;49.60;99463.09;2067485;28;19930;-56
2023/04/13 04:57:18;;;;;;;;;;;;;;;17.49;49.87;99461.91;2070301;28;20340;-57
2023/04/13 04:58:21;;;;;;;;;;;;;;;17.50;49.82;99462.69;2068660;28;20675;-57
2023/04/13 04:59:28;;;;;;;;;;;;;;;17.49;49.78;99461.91;2065318;28;20431;-58
2023/04/13 05:00:34;;;;;;;;;;;;;;;17.49;49.60;99472.81;2066136;28;21084;-55
2023/04/13 05:01:42;;;;;;;;;;;;;;;17.50;49.69;99470.88;2072646;28;19934;-57
2023/04/13 05:02:49;;;;;;;;;;;;;;;17.50;49.79;99479.84;2069647;28;19934;-57
2023/04/13 05:03:51;;;;;;;;;;;;;;;17.50;50.02;99473.59;2067800;28;20373;-55
2023/04/13 05:05:02;;;;;;;;;;;;;;;17.51;49.86;99477.84;2061902;28;20025;-56
2023/04/13 05:06:04;;;;;;;;;;;;;;;17.51;50.02;99475.91;2057078;28;20029;-58
2023/04/13 05:07:09;;;;;;;;;;;;;;;17.51;49.99;99486.81;2050183;28;20009;-56
2023/04/13 05:08:13;;;;;;;;;;;;;;;17.50;50.03;99482.56;2056751;28;20721;-57
2023/04/13 05:09:19;;;;;;;;;;;;;;;17.50;50.24;99487.25;2056816;28;19930;-57
2023/04/13 05:10:27;;;;;;;;;;;;;;;17.51;50.05;99478.63;2059557;28;19929;-56
2023/04/13 05:11:32;;;;;;;;;;;;;;;17.51;49.95;99484.09;2060306;28;20683;-57
2023/04/13 05:12:36;;;;;;;;;;;;;;;17.51;50.08;99492.28;2054875;28;19978;-57
2023/04/13 05:13:39;;;;;;;;;;;;;;;17.51;49.92;99492.28;2060773;28;19926;-57
2023/04/13 05:14:51;;;;;;;;;;;;;;;17.51;49.87;99489.56;2057733;28;19937;-57
2023/04/13 05:15:54;;;;;;;;;;;;;;;17.52;50.00;99487.59;2055897;28;19933;-57
2023/04/13 05:16:56;;;;;;;;;;;;;;;17.52;50.20;99493.06;2055464;28;20612;-56
2023/04/13 05:18:11;;;;;;;;;;;;;;;17.51;50.17;99495.00;2056827;28;20548;-57
2023/04/13 05:19:13;;;;;;;;;;;;;;;17.52;50.30;99493.06;2049089;28;20417;-55
2023/04/13 05:20:26;;;;;;;;;;;;;;;17.51;50.12;99496.97;2044480;28;19966;-54
2023/04/13 05:21:33;;;;;;;;;;;;;;;17.51;50.01;99492.28;2059815;28;19930;-56
2023/04/13 05:22:36;;;;;;;;;;;;;;;17.52;50.19;99498.53;2062991;28;19925;-56
2023/04/13 05:23:41;;;;;;;;;;;;;;;17.52;50.49;99499.25;2068796;28;19933;-57
2023/04/13 05:24:43;;;;;;;;;;;;;;;17.52;50.63;99496.53;2072571;28;20060;-53
2023/04/13 05:25:48;;;;;;;;;;;;;;;17.52;50.30;99506.69;2070843;28;19969;-55
2023/04/13 05:26:55;;;;;;;;;;;;;;;17.53;50.46;99508.22;2057087;28;19969;-57
2023/04/13 05:27:57;;;;;;;;;;;;;;;17.52;50.48;99512.16;2060051;28;19933;-56
2023/04/13 05:29:01;;;;;;;;;;;;;;;17.52;50.72;99503.97;2058601;28;19934;-55
2023/04/13 05:30:09;;;;;;;;;;;;;;;17.52;50.53;99512.91;2061297;28;20017;-56
2023/04/13 05:31:14;;;;;;;;;;;;;;;17.53;50.64;99502.78;2067521;28;20359;-54
2023/04/13 05:32:19;;;;;;;;;;;;;;;17.53;50.27;99500.03;2067428;28;19930;-57
2023/04/13 05:33:23;;;;;;;;;;;;;;;17.53;50.25;99510.97;2064834;28;19926;-56
2023/04/13 05:34:29;;;;;;;;;;;;;;;17.53;50.65;99510.97;2060163;28;19934;-56
2023/04/13 05:35:55;;;;;;;;;;;;;;;17.53;50.36;99514.47;2058844;28;20371;-57
2023/04/13 05:36:59;;;;;;;;;;;;;;;17.53;50.49;99524.59;2063865;28;19936;-55
2023/04/13 05:38:00;;;;;;;;;;;;;;;17.54;50.40;99515.22;2063149;28;20669;-54
2023/04/13 05:39:07;;;;;;;;;;;;;;;17.53;50.48;99519.94;2064237;28;20342;-53